sensor_id;sensor_type;location;lat;lon;timestamp;pressure;altitude;pressure_sealevel;temperature;humidity
72950;BME280;64868;45.710;9.590;2023-06-05T00:00:54;98987.56;;;16.81;81.09
72950;BME280;64868;45.710;9.590;2023-06-05T00:03:19;98984.81;;;16.81;80.44
72950;BME280;64868;45.710;9.590;2023-06-05T00:05:45;98975.56;;;16.82;80.43
72950;BME280;64868;45.710;9.590;2023-06-05T00:08:11;98986.81;;;16.89;80.02
72950;BME280;64868;45.710;9.590;2023-06-05T00:10:37;98991.47;;;16.88;80.44
72950;BME280;64868;45.710;9.590;2023-06-05T00:13:02;98991.47;;;16.88;79.96
72950;BME280;64868;45.710;9.590;2023-06-05T00:15:28;98971.94;;;16.72;81.42
72950;BME280;64868;45.710;9.590;2023-06-05T00:17:53;98975.44;;;16.74;80.82
72950;BME280;64868;45.710;9.590;2023-06-05T00:20:20;98975.56;;;16.72;80.10
72950;BME280;64868;45.710;9.590;2023-06-05T00:22:45;98976.25;;;16.84;79.37
72950;BME280;64868;45.710;9.590;2023-06-05T00:25:31;98975.88;;;16.79;80.37
72950;BME280;64868;45.710;9.590;2023-06-05T00:27:56;98974.66;;;16.82;79.62
72950;BME280;64868;45.710;9.590;2023-06-05T00:30:22;98970.91;;;16.83;79.98
72950;BME280;64868;45.710;9.590;2023-06-05T00:32:47;98956.28;;;16.72;80.11
72950;BME280;64868;45.710;9.590;2023-06-05T00:35:31;98967.41;;;16.90;79.58
72950;BME280;64868;45.710;9.590;2023-06-05T00:38:15;98964.69;;;16.81;81.00
72950;BME280;64868;45.710;9.590;2023-06-05T00:40:41;98962.19;;;16.87;79.52
72950;BME280;64868;45.710;9.590;2023-06-05T00:43:06;98957.91;;;16.75;80.61
72950;BME280;64868;45.710;9.590;2023-06-05T00:45:33;98963.09;;;16.78;79.98
72950;BME280;64868;45.710;9.590;2023-06-05T00:47:58;98950.66;;;16.74;80.98
72950;BME280;64868;45.710;9.590;2023-06-05T00:50:24;98965.41;;;16.73;80.74
72950;BME280;64868;45.710;9.590;2023-06-05T00:52:50;98955.44;;;16.72;80.11
72950;BME280;64868;45.710;9.590;2023-06-05T00:55:16;98957.16;;;16.73;80.44
72950;BME280;64868;45.710;9.590;2023-06-05T00:57:43;98934.78;;;16.58;81.18
72950;BME280;64868;45.710;9.590;2023-06-05T01:00:10;98942.00;;;16.59;80.86
72950;BME280;64868;45.710;9.590;2023-06-05T01:05:24;98958.78;;;16.75;80.72
72950;BME280;64868;45.710;9.590;2023-06-05T01:07:49;98948.50;;;16.68;80.75
72950;BME280;64868;45.710;9.590;2023-06-05T01:10:16;98942.25;;;16.66;79.59
72950;BME280;64868;45.710;9.590;2023-06-05T01:15:10;98953.16;;;16.67;80.43
72950;BME280;64868;45.710;9.590;2023-06-05T01:17:37;98938.84;;;16.54;81.06
72950;BME280;64868;45.710;9.590;2023-06-05T01:20:03;98937.25;;;16.51;80.75
72950;BME280;64868;45.710;9.590;2023-06-05T01:22:50;98958.09;;;16.64;80.65
72950;BME280;64868;45.710;9.590;2023-06-05T01:25:18;98962.41;;;16.66;81.47
72950;BME280;64868;45.710;9.590;2023-06-05T01:28:08;98944.06;;;16.57;80.35
72950;BME280;64868;45.710;9.590;2023-06-05T01:31:01;98946.97;;;16.56;81.21
72950;BME280;64868;45.710;9.590;2023-06-05T01:36:17;98937.25;;;16.51;81.50
72950;BME280;64868;45.710;9.590;2023-06-05T01:38:44;98931.34;;;16.46;81.77
72950;BME280;64868;45.710;9.590;2023-06-05T01:41:12;98939.31;;;16.49;81.32
72950;BME280;64868;45.710;9.590;2023-06-05T01:43:38;98927.75;;;16.36;81.69
72950;BME280;64868;45.710;9.590;2023-06-05T01:48:50;98943.66;;;16.52;80.83
72950;BME280;64868;45.710;9.590;2023-06-05T01:51:16;98932.09;;;16.48;81.04
72950;BME280;64868;45.710;9.590;2023-06-05T01:53:41;98922.53;;;16.43;80.58
72950;BME280;64868;45.710;9.590;2023-06-05T01:56:07;98944.81;;;16.49;80.87
72950;BME280;64868;45.710;9.590;2023-06-05T01:58:34;98938.00;;;16.44;80.51
72950;BME280;64868;45.710;9.590;2023-06-05T02:01:00;98931.53;;;16.35;80.90
72950;BME280;64868;45.710;9.590;2023-06-05T02:03:44;98933.84;;;16.40;80.62
72950;BME280;64868;45.710;9.590;2023-06-05T02:06:13;98913.31;;;16.34;80.84
72950;BME280;64868;45.710;9.590;2023-06-05T02:08:57;98933.69;;;16.41;80.42
72950;BME280;64868;45.710;9.590;2023-06-05T02:11:23;98919.56;;;16.26;80.39
72950;BME280;64868;45.710;9.590;2023-06-05T02:13:51;98927.06;;;16.34;80.98
72950;BME280;64868;45.710;9.590;2023-06-05T02:16:18;98919.28;;;16.29;81.97
72950;BME280;64868;45.710;9.590;2023-06-05T02:19:02;98900.16;;;16.28;81.46
72950;BME280;64868;45.710;9.590;2023-06-05T02:21:32;98929.94;;;16.33;82.42
72950;BME280;64868;45.710;9.590;2023-06-05T02:23:59;98920.84;;;16.32;82.71
72950;BME280;64868;45.710;9.590;2023-06-05T02:26:24;98930.66;;;16.44;82.06
72950;BME280;64868;45.710;9.590;2023-06-05T02:28:51;98926.00;;;16.45;82.40
72950;BME280;64868;45.710;9.590;2023-06-05T02:31:35;98924.03;;;16.37;82.95
72950;BME280;64868;45.710;9.590;2023-06-05T02:34:02;98921.84;;;16.41;82.01
72950;BME280;64868;45.710;9.590;2023-06-05T02:36:27;98901.91;;;16.29;81.15
72950;BME280;64868;45.710;9.590;2023-06-05T02:38:58;98934.41;;;16.43;80.30
72950;BME280;64868;45.710;9.590;2023-06-05T02:41:23;98908.25;;;16.29;80.89
72950;BME280;64868;45.710;9.590;2023-06-05T02:43:49;98918.50;;;16.37;80.74
72950;BME280;64868;45.710;9.590;2023-06-05T02:46:15;98912.75;;;16.30;81.41
72950;BME280;64868;45.710;9.590;2023-06-05T02:48:40;98911.69;;;16.41;80.50
72950;BME280;64868;45.710;9.590;2023-06-05T02:51:06;98918.63;;;16.45;80.12
72950;BME280;64868;45.710;9.590;2023-06-05T02:56:16;98907.50;;;16.37;80.11
72950;BME280;64868;45.710;9.590;2023-06-05T02:58:41;98910.38;;;16.36;80.53
72950;BME280;64868;45.710;9.590;2023-06-05T03:03:59;98913.97;;;16.46;81.53
72950;BME280;64868;45.710;9.590;2023-06-05T03:06:43;98917.47;;;16.48;81.50
72950;BME280;64868;45.710;9.590;2023-06-05T03:09:46;98910.38;;;16.45;81.72
72950;BME280;64868;45.710;9.590;2023-06-05T03:12:11;98906.88;;;16.43;81.28
72950;BME280;64868;45.710;9.590;2023-06-05T03:14:37;98903.00;;;16.36;80.89
72950;BME280;64868;45.710;9.590;2023-06-05T03:17:02;98906.47;;;16.38;81.34
72950;BME280;64868;45.710;9.590;2023-06-05T03:19:28;98908.78;;;16.43;80.94
72950;BME280;64868;45.710;9.590;2023-06-05T03:22:12;98903.34;;;16.33;81.27
72950;BME280;64868;45.710;9.590;2023-06-05T03:24:38;98901.91;;;16.29;81.70
72950;BME280;64868;45.710;9.590;2023-06-05T03:27:04;98904.38;;;16.22;82.36
72950;BME280;64868;45.710;9.590;2023-06-05T03:29:32;98904.22;;;16.24;82.04
72950;BME280;64868;45.710;9.590;2023-06-05T03:31:57;98905.94;;;16.25;82.68
72950;BME280;64868;45.710;9.590;2023-06-05T03:37:25;98908.56;;;16.26;82.47
72950;BME280;64868;45.710;9.590;2023-06-05T03:40:09;98897.84;;;16.23;81.96
72950;BME280;64868;45.710;9.590;2023-06-05T03:42:35;98888.63;;;16.15;82.33
72950;BME280;64868;45.710;9.590;2023-06-05T03:45:01;98895.00;;;16.15;82.09
72950;BME280;64868;45.710;9.590;2023-06-05T03:47:45;98913.25;;;16.44;80.24
72950;BME280;64868;45.710;9.590;2023-06-05T03:50:14;98906.50;;;16.28;81.56
72950;BME280;64868;45.710;9.590;2023-06-05T03:52:40;98905.53;;;16.20;81.96
72950;BME280;64868;45.710;9.590;2023-06-05T03:55:07;98909.41;;;16.27;81.91
72950;BME280;64868;45.710;9.590;2023-06-05T03:57:38;98914.75;;;16.28;82.43
72950;BME280;64868;45.710;9.590;2023-06-05T04:00:22;98917.09;;;16.33;82.04
72950;BME280;64868;45.710;9.590;2023-06-05T04:02:48;98911.59;;;16.33;80.64
72950;BME280;64868;45.710;9.590;2023-06-05T04:05:13;98909.41;;;16.37;81.36
72950;BME280;64868;45.710;9.590;2023-06-05T04:07:39;98909.63;;;16.43;80.89
72950;BME280;64868;45.710;9.590;2023-06-05T04:10:05;98917.00;;;16.52;80.08
72950;BME280;64868;45.710;9.590;2023-06-05T04:12:30;98906.44;;;16.48;79.65
72950;BME280;64868;45.710;9.590;2023-06-05T04:14:56;98916.53;;;16.57;80.81
72950;BME280;64868;45.710;9.590;2023-06-05T04:17:21;98910.72;;;16.60;80.48
72950;BME280;64868;45.710;9.590;2023-06-05T04:19:46;98919.69;;;16.62;79.55
72950;BME280;64868;45.710;9.590;2023-06-05T04:22:30;98914.34;;;16.61;80.17
72950;BME280;64868;45.710;9.590;2023-06-05T04:24:56;98910.25;;;16.65;80.71
72950;BME280;64868;45.710;9.590;2023-06-05T04:27:21;98917.31;;;16.77;79.71
72950;BME280;64868;45.710;9.590;2023-06-05T04:29:53;98897.34;;;16.75;79.54
72950;BME280;64868;45.710;9.590;2023-06-05T04:32:19;98919.84;;;16.88;78.34
72950;BME280;64868;45.710;9.590;2023-06-05T04:37:47;98932.00;;;16.95;79.05
72950;BME280;64868;45.710;9.590;2023-06-05T04:43:16;98927.28;;;17.06;78.73
72950;BME280;64868;45.710;9.590;2023-06-05T04:45:41;98927.38;;;17.14;78.29
72950;BME280;64868;45.710;9.590;2023-06-05T04:48:25;98927.28;;;17.23;79.19
72950;BME280;64868;45.710;9.590;2023-06-05T04:50:52;98910.63;;;17.25;78.12
72950;BME280;64868;45.710;9.590;2023-06-05T04:53:18;98927.31;;;17.41;78.29
72950;BME280;64868;45.710;9.590;2023-06-05T04:55:44;98913.13;;;17.36;78.16
72950;BME280;64868;45.710;9.590;2023-06-05T04:58:10;98917.94;;;17.52;77.57
72950;BME280;64868;45.710;9.590;2023-06-05T05:00:54;98928.47;;;17.74;78.13
72950;BME280;64868;45.710;9.590;2023-06-05T05:03:38;98915.31;;;17.86;77.12
72950;BME280;64868;45.710;9.590;2023-06-05T05:06:22;98916.19;;;18.13;75.20
72950;BME280;64868;45.710;9.590;2023-06-05T05:08:48;98905.78;;;18.07;75.09
72950;BME280;64868;45.710;9.590;2023-06-05T05:11:32;98929.72;;;18.24;73.47
72950;BME280;64868;45.710;9.590;2023-06-05T05:13:58;98922.16;;;18.26;73.75
72950;BME280;64868;45.710;9.590;2023-06-05T05:16:23;98929.25;;;18.37;72.25
72950;BME280;64868;45.710;9.590;2023-06-05T05:21:34;98919.00;;;18.21;72.78
72950;BME280;64868;45.710;9.590;2023-06-05T05:24:00;98927.75;;;18.16;73.42
72950;BME280;64868;45.710;9.590;2023-06-05T05:29:28;98932.09;;;18.19;74.15
72950;BME280;64868;45.710;9.590;2023-06-05T05:32:12;98936.00;;;18.34;73.34
72950;BME280;64868;45.710;9.590;2023-06-05T05:34:37;98928.59;;;18.43;73.00
72950;BME280;64868;45.710;9.590;2023-06-05T05:37:21;98942.44;;;18.51;72.88
72950;BME280;64868;45.710;9.590;2023-06-05T05:45:16;98921.31;;;18.34;73.23
72950;BME280;64868;45.710;9.590;2023-06-05T05:50:25;98947.53;;;18.64;73.11
72950;BME280;64868;45.710;9.590;2023-06-05T05:55:34;98936.13;;;19.01;71.60
72950;BME280;64868;45.710;9.590;2023-06-05T05:58:00;98932.53;;;19.09;70.92
72950;BME280;64868;45.710;9.590;2023-06-05T06:03:28;98927.84;;;19.01;71.14
72950;BME280;64868;45.710;9.590;2023-06-05T06:05:54;98938.44;;;19.14;71.17
72950;BME280;64868;45.710;9.590;2023-06-05T06:08:19;98945.19;;;19.28;70.80
72950;BME280;64868;45.710;9.590;2023-06-05T06:10:46;98943.31;;;19.36;69.27
72950;BME280;64868;45.710;9.590;2023-06-05T06:13:12;98947.16;;;19.52;68.92
72950;BME280;64868;45.710;9.590;2023-06-05T06:18:40;98952.03;;;19.90;67.51
72950;BME280;64868;45.710;9.590;2023-06-05T06:21:06;98945.59;;;20.23;66.68
72950;BME280;64868;45.710;9.590;2023-06-05T06:23:32;98954.28;;;20.92;63.60
72950;BME280;64868;45.710;9.590;2023-06-05T06:26:16;98944.06;;;21.23;61.35
72950;BME280;64868;45.710;9.590;2023-06-05T06:28:41;98941.53;;;21.68;60.62
72950;BME280;64868;45.710;9.590;2023-06-05T06:31:08;98949.72;;;23.34;56.11
72950;BME280;64868;45.710;9.590;2023-06-05T06:33:33;98929.53;;;24.11;52.72
72950;BME280;64868;45.710;9.590;2023-06-05T06:36:20;98960.63;;;24.98;50.16
72950;BME280;64868;45.710;9.590;2023-06-05T06:38:46;98945.72;;;24.50;50.94
72950;BME280;64868;45.710;9.590;2023-06-05T06:41:11;98923.25;;;24.58;50.98
72950;BME280;64868;45.710;9.590;2023-06-05T06:43:37;98941.53;;;24.61;51.46
72950;BME280;64868;45.710;9.590;2023-06-05T06:46:21;98967.81;;;25.76;47.92
72950;BME280;64868;45.710;9.590;2023-06-05T06:48:46;98955.94;;;25.06;48.35
72950;BME280;64868;45.710;9.590;2023-06-05T06:51:12;98958.66;;;24.58;49.57
72950;BME280;64868;45.710;9.590;2023-06-05T06:53:37;98956.41;;;24.74;49.26
72950;BME280;64868;45.710;9.590;2023-06-05T06:56:21;98967.59;;;25.70;48.39
72950;BME280;64868;45.710;9.590;2023-06-05T06:58:47;98951.41;;;24.98;47.92
72950;BME280;64868;45.710;9.590;2023-06-05T07:01:14;98981.47;;;24.18;48.93
72950;BME280;64868;45.710;9.590;2023-06-05T07:06:24;98956.59;;;23.38;51.29
72950;BME280;64868;45.710;9.590;2023-06-05T07:09:08;98966.34;;;23.48;51.16
72950;BME280;64868;45.710;9.590;2023-06-05T07:11:53;98975.56;;;23.49;52.47
72950;BME280;64868;45.710;9.590;2023-06-05T07:14:19;98959.88;;;23.26;51.24
72950;BME280;64868;45.710;9.590;2023-06-05T07:17:03;98967.34;;;23.26;51.07
72950;BME280;64868;45.710;9.590;2023-06-05T07:19:30;98971.75;;;23.35;51.03
72950;BME280;64868;45.710;9.590;2023-06-05T07:21:57;98972.97;;;23.11;51.13
72950;BME280;64868;45.710;9.590;2023-06-05T07:27:25;98967.88;;;21.95;55.35
72950;BME280;64868;45.710;9.590;2023-06-05T07:30:10;98954.97;;;22.02;54.82
72950;BME280;64868;45.710;9.590;2023-06-05T07:35:20;98974.34;;;22.48;54.57
72950;BME280;64868;45.710;9.590;2023-06-05T07:37:46;98974.97;;;22.20;54.68
72950;BME280;64868;45.710;9.590;2023-06-05T07:40:12;98942.25;;;21.84;55.65
72950;BME280;64868;45.710;9.590;2023-06-05T07:42:56;98979.75;;;21.57;57.35
72950;BME280;64868;45.710;9.590;2023-06-05T07:45:21;98955.84;;;21.17;59.54
72950;BME280;64868;45.710;9.590;2023-06-05T07:48:05;98970.94;;;21.54;57.49
72950;BME280;64868;45.710;9.590;2023-06-05T07:50:30;98962.63;;;21.77;57.01
72950;BME280;64868;45.710;9.590;2023-06-05T07:52:56;98981.25;;;21.68;57.41
72950;BME280;64868;45.710;9.590;2023-06-05T07:55:21;98963.75;;;21.68;57.57
72950;BME280;64868;45.710;9.590;2023-06-05T07:57:47;98971.72;;;21.40;58.34
72950;BME280;64868;45.710;9.590;2023-06-05T08:00:13;98979.09;;;21.78;58.09
72950;BME280;64868;45.710;9.590;2023-06-05T08:02:38;98980.97;;;22.47;56.22
72950;BME280;64868;45.710;9.590;2023-06-05T08:05:04;98967.41;;;23.11;54.21
72950;BME280;64868;45.710;9.590;2023-06-05T08:07:30;98969.13;;;24.84;49.53
72950;BME280;64868;45.710;9.590;2023-06-05T08:09:56;98980.19;;;26.81;42.83
72950;BME280;64868;45.710;9.590;2023-06-05T08:12:21;98941.03;;;26.21;44.35
72950;BME280;64868;45.710;9.590;2023-06-05T08:14:47;98964.50;;;26.33;44.71
72950;BME280;64868;45.710;9.590;2023-06-05T08:17:12;98983.84;;;26.41;44.87
72950;BME280;64868;45.710;9.590;2023-06-05T08:19:37;98967.84;;;24.86;48.72
72950;BME280;64868;45.710;9.590;2023-06-05T08:22:03;98979.59;;;24.25;50.21
72950;BME280;64868;45.710;9.590;2023-06-05T08:24:48;98982.94;;;24.14;51.81
72950;BME280;64868;45.710;9.590;2023-06-05T08:27:17;98984.97;;;24.27;51.62
72950;BME280;64868;45.710;9.590;2023-06-05T08:30:01;98984.44;;;24.17;51.90
72950;BME280;64868;45.710;9.590;2023-06-05T08:35:47;98964.78;;;23.75;52.06
72950;BME280;64868;45.710;9.590;2023-06-05T08:38:32;98984.16;;;23.90;52.65
72950;BME280;64868;45.710;9.590;2023-06-05T08:41:03;98985.72;;;23.93;51.82
72950;BME280;64868;45.710;9.590;2023-06-05T08:43:30;98989.94;;;22.34;56.15
72950;BME280;64868;45.710;9.590;2023-06-05T08:45:56;98986.56;;;23.06;55.12
72950;BME280;64868;45.710;9.590;2023-06-05T08:48:24;98970.06;;;23.92;52.92
72950;BME280;64868;45.710;9.590;2023-06-05T08:50:50;98974.22;;;24.45;51.70
72950;BME280;64868;45.710;9.590;2023-06-05T08:53:17;98957.38;;;24.32;50.01
72950;BME280;64868;45.710;9.590;2023-06-05T08:58:30;98978.25;;;24.43;50.53
72950;BME280;64868;45.710;9.590;2023-06-05T09:00:56;98971.75;;;23.71;50.65
72950;BME280;64868;45.710;9.590;2023-06-05T09:03:22;98973.25;;;23.52;52.35
72950;BME280;64868;45.710;9.590;2023-06-05T09:06:06;98971.13;;;23.91;50.72
72950;BME280;64868;45.710;9.590;2023-06-05T09:08:33;98963.28;;;23.43;52.18
72950;BME280;64868;45.710;9.590;2023-06-05T09:13:49;98979.28;;;23.92;51.13
72950;BME280;64868;45.710;9.590;2023-06-05T09:19:00;98990.63;;;23.91;51.92
72950;BME280;64868;45.710;9.590;2023-06-05T09:21:26;98987.81;;;23.69;51.98
72950;BME280;64868;45.710;9.590;2023-06-05T09:24:21;98942.59;;;23.67;51.50
72950;BME280;64868;45.710;9.590;2023-06-05T09:27:09;98984.03;;;24.41;50.77
72950;BME280;64868;45.710;9.590;2023-06-05T09:30:01;98986.19;;;23.60;50.33
72950;BME280;64868;45.710;9.590;2023-06-05T09:32:26;98964.28;;;23.36;51.62
72950;BME280;64868;45.710;9.590;2023-06-05T09:35:15;98958.50;;;24.16;51.22
72950;BME280;64868;45.710;9.590;2023-06-05T09:37:41;98977.88;;;24.24;49.34
72950;BME280;64868;45.710;9.590;2023-06-05T09:40:11;98970.88;;;24.57;50.30
72950;BME280;64868;45.710;9.590;2023-06-05T09:42:40;98985.66;;;24.36;49.62
72950;BME280;64868;45.710;9.590;2023-06-05T09:45:06;98977.75;;;23.90;50.19
72950;BME280;64868;45.710;9.590;2023-06-05T09:50:34;98979.19;;;24.28;49.91
72950;BME280;64868;45.710;9.590;2023-06-05T09:53:02;98979.81;;;24.02;49.78
72950;BME280;64868;45.710;9.590;2023-06-05T09:55:28;98965.53;;;23.69;50.01
72950;BME280;64868;45.710;9.590;2023-06-05T09:57:55;98972.38;;;23.67;50.88
72950;BME280;64868;45.710;9.590;2023-06-05T10:00:42;98957.38;;;24.60;49.55
72950;BME280;64868;45.710;9.590;2023-06-05T10:03:14;98958.66;;;25.34;48.07
72950;BME280;64868;45.710;9.590;2023-06-05T10:05:58;98977.00;;;25.08;47.70
72950;BME280;64868;45.710;9.590;2023-06-05T10:08:24;98967.38;;;24.48;48.87
72950;BME280;64868;45.710;9.590;2023-06-05T10:10:50;98958.09;;;24.19;48.90
72950;BME280;64868;45.710;9.590;2023-06-05T10:13:16;98967.38;;;24.26;49.49
72950;BME280;64868;45.710;9.590;2023-06-05T10:15:42;98950.72;;;24.33;49.97
72950;BME280;64868;45.710;9.590;2023-06-05T10:18:08;98967.28;;;23.92;50.67
72950;BME280;64868;45.710;9.590;2023-06-05T10:20:35;98959.13;;;23.69;51.72
72950;BME280;64868;45.710;9.590;2023-06-05T10:23:01;98967.81;;;23.29;52.15
72950;BME280;64868;45.710;9.590;2023-06-05T10:25:28;98965.03;;;22.41;55.34
72950;BME280;64868;45.710;9.590;2023-06-05T10:33:52;98966.56;;;22.96;53.46
72950;BME280;64868;45.710;9.590;2023-06-05T10:39:38;98967.16;;;22.68;54.18
72950;BME280;64868;45.710;9.590;2023-06-05T10:42:05;98966.47;;;22.37;55.47
72950;BME280;64868;45.710;9.590;2023-06-05T10:44:43;98984.09;;;22.06;56.52
72950;BME280;64868;45.710;9.590;2023-06-05T10:52:59;98958.28;;;21.20;59.46
72950;BME280;64868;45.710;9.590;2023-06-05T10:55:26;98931.97;;;21.16;60.83
72950;BME280;64868;45.710;9.590;2023-06-05T11:03:56;98961.41;;;21.17;61.20
72950;BME280;64868;45.710;9.590;2023-06-05T11:06:22;98948.56;;;20.85;62.70
72950;BME280;64868;45.710;9.590;2023-06-05T11:12:00;98959.06;;;20.58;64.45
72950;BME280;64868;45.710;9.590;2023-06-05T11:14:47;98961.88;;;20.89;63.45
72950;BME280;64868;45.710;9.590;2023-06-05T11:17:33;98965.88;;;21.26;63.74
72950;BME280;64868;45.710;9.590;2023-06-05T11:20:00;98940.13;;;21.18;63.36
72950;BME280;64868;45.710;9.590;2023-06-05T11:22:26;98972.78;;;21.38;63.39
72950;BME280;64868;45.710;9.590;2023-06-05T11:25:27;98960.94;;;21.05;64.62
72950;BME280;64868;45.710;9.590;2023-06-05T11:28:11;98964.94;;;21.42;63.49
72950;BME280;64868;45.710;9.590;2023-06-05T11:30:42;98965.94;;;21.18;65.02
72950;BME280;64868;45.710;9.590;2023-06-05T11:33:28;98966.84;;;21.02;64.64
72950;BME280;64868;45.710;9.590;2023-06-05T11:36:13;98956.19;;;20.83;64.73
72950;BME280;64868;45.710;9.590;2023-06-05T11:38:38;98959.47;;;20.86;64.11
72950;BME280;64868;45.710;9.590;2023-06-05T11:43:51;98958.72;;;21.40;64.04
72950;BME280;64868;45.710;9.590;2023-06-05T11:46:16;98968.41;;;21.44;64.78
72950;BME280;64868;45.710;9.590;2023-06-05T11:48:43;98961.19;;;21.27;65.47
72950;BME280;64868;45.710;9.590;2023-06-05T11:51:32;98970.06;;;21.22;68.04
72950;BME280;64868;45.710;9.590;2023-06-05T11:54:28;98970.38;;;21.27;66.33
72950;BME280;64868;45.710;9.590;2023-06-05T11:57:01;98951.22;;;21.09;67.41
72950;BME280;64868;45.710;9.590;2023-06-05T11:59:37;98965.81;;;21.03;69.29
72950;BME280;64868;45.710;9.590;2023-06-05T12:02:04;98965.97;;;21.02;69.92
72950;BME280;64868;45.710;9.590;2023-06-05T12:04:31;98952.88;;;20.96;69.37
72950;BME280;64868;45.710;9.590;2023-06-05T12:06:57;98968.91;;;21.08;70.06
72950;BME280;64868;45.710;9.590;2023-06-05T12:09:25;98966.19;;;21.31;69.61
72950;BME280;64868;45.710;9.590;2023-06-05T12:11:51;98946.41;;;21.03;68.57
72950;BME280;64868;45.710;9.590;2023-06-05T12:14:30;98972.91;;;21.06;69.89
72950;BME280;64868;45.710;9.590;2023-06-05T12:16:56;98967.94;;;20.93;70.46
72950;BME280;64868;45.710;9.590;2023-06-05T12:19:22;98939.31;;;21.01;70.06
72950;BME280;64868;45.710;9.590;2023-06-05T12:22:07;98937.34;;;21.18;68.74
72950;BME280;64868;45.710;9.590;2023-06-05T12:24:34;98963.59;;;21.38;67.58
72950;BME280;64868;45.710;9.590;2023-06-05T12:27:29;98955.91;;;21.09;70.11
72950;BME280;64868;45.710;9.590;2023-06-05T12:29:57;98960.03;;;21.13;69.66
72950;BME280;64868;45.710;9.590;2023-06-05T12:32:24;98952.66;;;21.36;69.42
72950;BME280;64868;45.710;9.590;2023-06-05T12:34:50;98951.88;;;21.51;68.88
72950;BME280;64868;45.710;9.590;2023-06-05T12:40:13;98955.00;;;21.56;69.50
72950;BME280;64868;45.710;9.590;2023-06-05T12:42:40;98929.88;;;21.72;66.62
72950;BME280;64868;45.710;9.590;2023-06-05T12:45:06;98934.94;;;21.69;67.00
72950;BME280;64868;45.710;9.590;2023-06-05T12:47:33;98927.22;;;21.79;65.42
72950;BME280;64868;45.710;9.590;2023-06-05T12:49:58;98926.41;;;21.70;65.48
72950;BME280;64868;45.710;9.590;2023-06-05T12:52:24;98931.88;;;21.64;66.72
72950;BME280;64868;45.710;9.590;2023-06-05T12:54:54;98936.78;;;21.76;66.13
72950;BME280;64868;45.710;9.590;2023-06-05T12:57:21;98936.56;;;22.01;65.45
72950;BME280;64868;45.710;9.590;2023-06-05T12:59:47;98941.53;;;22.14;65.41
72950;BME280;64868;45.710;9.590;2023-06-05T13:02:13;98936.00;;;22.28;64.20
72950;BME280;64868;45.710;9.590;2023-06-05T13:04:39;98947.41;;;22.33;64.33
72950;BME280;64868;45.710;9.590;2023-06-05T13:07:05;98934.75;;;22.31;65.61
72950;BME280;64868;45.710;9.590;2023-06-05T13:09:49;98941.16;;;22.17;65.34
72950;BME280;64868;45.710;9.590;2023-06-05T13:12:16;98948.34;;;22.26;66.41
72950;BME280;64868;45.710;9.590;2023-06-05T13:17:27;98920.50;;;22.11;64.67
72950;BME280;64868;45.710;9.590;2023-06-05T13:19:53;98921.88;;;22.15;64.25
72950;BME280;64868;45.710;9.590;2023-06-05T13:22:19;98939.28;;;22.32;64.28
72950;BME280;64868;45.710;9.590;2023-06-05T13:24:45;98926.41;;;22.31;65.45
72950;BME280;64868;45.710;9.590;2023-06-05T13:27:30;98931.34;;;22.44;64.28
72950;BME280;64868;45.710;9.590;2023-06-05T13:29:55;98915.31;;;22.75;63.24
72950;BME280;64868;45.710;9.590;2023-06-05T13:32:21;98891.00;;;22.92;61.07
72950;BME280;64868;45.710;9.590;2023-06-05T13:34:46;98923.75;;;23.12;60.16
72950;BME280;64868;45.710;9.590;2023-06-05T13:37:12;98905.03;;;23.78;58.54
72950;BME280;64868;45.710;9.590;2023-06-05T13:39:37;98918.50;;;24.87;55.71
72950;BME280;64868;45.710;9.590;2023-06-05T13:42:03;98923.25;;;24.58;54.84
72950;BME280;64868;45.710;9.590;2023-06-05T13:44:29;98877.81;;;24.30;54.80
72950;BME280;64868;45.710;9.590;2023-06-05T13:46:55;98880.00;;;24.34;56.22
72950;BME280;64868;45.710;9.590;2023-06-05T13:49:21;98917.63;;;24.80;55.92
72950;BME280;64868;45.710;9.590;2023-06-05T13:51:46;98907.91;;;24.69;55.45
72950;BME280;64868;45.710;9.590;2023-06-05T13:54:11;98908.13;;;24.67;54.54
72950;BME280;64868;45.710;9.590;2023-06-05T13:59:42;98855.13;;;24.67;53.65
72950;BME280;64868;45.710;9.590;2023-06-05T14:02:07;98904.78;;;24.85;54.68
72950;BME280;64868;45.710;9.590;2023-06-05T14:04:51;98901.69;;;24.73;54.82
72950;BME280;64868;45.710;9.590;2023-06-05T14:07:17;98900.31;;;24.56;55.03
72950;BME280;64868;45.710;9.590;2023-06-05T14:09:42;98894.47;;;24.23;56.24
72950;BME280;64868;45.710;9.590;2023-06-05T14:15:10;98897.56;;;24.07;57.39
72950;BME280;64868;45.710;9.590;2023-06-05T14:17:36;98897.59;;;23.85;56.06
72950;BME280;64868;45.710;9.590;2023-06-05T14:20:02;98895.09;;;23.69;55.68
72950;BME280;64868;45.710;9.590;2023-06-05T14:22:27;98890.09;;;23.64;55.33
72950;BME280;64868;45.710;9.590;2023-06-05T14:24:53;98874.31;;;23.71;54.63
72950;BME280;64868;45.710;9.590;2023-06-05T14:27:18;98880.34;;;23.96;55.07
72950;BME280;64868;45.710;9.590;2023-06-05T14:29:44;98869.97;;;23.26;55.95
72950;BME280;64868;45.710;9.590;2023-06-05T14:32:10;98871.38;;;23.37;56.09
72950;BME280;64868;45.710;9.590;2023-06-05T14:34:35;98878.91;;;23.00;57.63
72950;BME280;64868;45.710;9.590;2023-06-05T14:39:45;98852.69;;;22.58;59.63
72950;BME280;64868;45.710;9.590;2023-06-05T14:42:11;98866.47;;;22.51;59.12
72950;BME280;64868;45.710;9.590;2023-06-05T14:44:36;98844.03;;;22.23;60.43
72950;BME280;64868;45.710;9.590;2023-06-05T14:47:01;98873.06;;;21.83;63.30
72950;BME280;64868;45.710;9.590;2023-06-05T14:49:27;98873.81;;;21.77;64.25
72950;BME280;64868;45.710;9.590;2023-06-05T14:51:52;98852.09;;;21.80;64.15
72950;BME280;64868;45.710;9.590;2023-06-05T14:54:18;98874.09;;;22.05;63.28
72950;BME280;64868;45.710;9.590;2023-06-05T14:57:01;98861.13;;;22.35;61.67
72950;BME280;64868;45.710;9.590;2023-06-05T14:59:27;98872.50;;;22.40;62.35
72950;BME280;64868;45.710;9.590;2023-06-05T15:04:36;98864.22;;;22.76;60.58
72950;BME280;64868;45.710;9.590;2023-06-05T15:07:02;98820.84;;;22.46;60.65
72950;BME280;64868;45.710;9.590;2023-06-05T15:09:27;98855.22;;;22.74;59.83